createdAt,value
2022-08-26T00:01:45.218Z,4.85
2022-08-26T00:04:12.676Z,4.63
2022-08-26T00:06:42.306Z,4.47
2022-08-26T00:09:12.904Z,5.55
2022-08-26T00:11:39.508Z,5.22
2022-08-26T00:14:06.604Z,4.82
2022-08-26T00:16:33.511Z,5.15
2022-08-26T00:19:01.176Z,5.03
2022-08-26T00:21:27.787Z,4.40
2022-08-26T00:23:55.652Z,4.57
2022-08-26T00:26:22.500Z,4.65
2022-08-26T00:28:55.133Z,4.28
2022-08-26T00:31:21.743Z,4.90
2022-08-26T00:33:48.557Z,5.47
2022-08-26T00:36:20.230Z,4.93
2022-08-26T00:38:47.897Z,4.53
2022-08-26T00:41:14.812Z,4.57
2022-08-26T00:43:47.136Z,4.65
2022-08-26T00:46:19.520Z,4.22
2022-08-26T00:48:50.009Z,4.90
2022-08-26T00:51:29.516Z,4.25
2022-08-26T00:54:05.796Z,4.43
2022-08-26T00:56:53.336Z,5.25
2022-08-26T00:59:20.677Z,4.97
2022-08-26T01:01:47.629Z,5.28
2022-08-26T01:04:17.974Z,4.13
2022-08-26T01:06:45.270Z,4.75
2022-08-26T01:09:12.693Z,4.95
2022-08-26T01:11:39.905Z,4.35
2022-08-26T01:14:08.626Z,5.10
2022-08-26T01:16:37.171Z,4.50
2022-08-26T01:19:15.914Z,5.13
2022-08-26T01:21:55.439Z,4.53
2022-08-26T01:24:22.079Z,4.82
2022-08-26T01:26:49.220Z,4.32
2022-08-26T01:29:19.276Z,5.43
2022-08-26T01:31:52.661Z,5.22
2022-08-26T01:34:26.918Z,4.78
2022-08-26T01:37:07.062Z,5.15
2022-08-26T01:39:36.322Z,4.85
2022-08-26T01:42:05.405Z,4.63
2022-08-26T01:44:59.405Z,4.30
2022-08-26T01:47:29.940Z,4.25
2022-08-26T01:49:59.836Z,4.88
2022-08-26T01:52:29.669Z,4.95
2022-08-26T01:54:58.955Z,5.38
2022-08-26T01:57:27.321Z,5.28
2022-08-26T01:59:58.138Z,4.05
2022-08-26T02:02:24.917Z,4.22
2022-08-26T02:04:59.641Z,4.80
2022-08-26T02:07:27.297Z,6.68
2022-08-26T02:09:54.117Z,4.53
2022-08-26T02:12:21.180Z,5.03
2022-08-26T02:14:54.930Z,4.68
2022-08-26T02:17:29.757Z,5.50
2022-08-26T02:19:57.888Z,5.07
2022-08-26T02:22:24.879Z,4.63
2022-08-26T02:24:54.513Z,4.88
2022-08-26T02:27:39.789Z,5.22
2022-08-26T02:30:09.239Z,4.90
2022-08-26T02:32:37.162Z,5.60
2022-08-26T02:35:09.011Z,5.47
2022-08-26T02:37:36.159Z,5.43
2022-08-26T02:40:05.200Z,6.03
2022-08-26T02:42:31.799Z,4.53
2022-08-26T02:44:58.490Z,5.10
2022-08-26T02:47:25.627Z,4.68
2022-08-26T02:49:55.840Z,5.18
2022-08-26T02:52:22.404Z,5.60
2022-08-26T02:54:49.618Z,5.00
2022-08-26T02:57:16.341Z,5.68
2022-08-26T02:59:42.972Z,5.18
2022-08-26T03:02:11.376Z,5.15
2022-08-26T03:04:40.245Z,4.63
2022-08-26T03:07:07.323Z,6.25
2022-08-26T03:09:34.088Z,5.50
2022-08-26T03:12:01.356Z,5.53
2022-08-26T03:14:29.008Z,5.25
2022-08-26T03:16:57.468Z,6.22
2022-08-26T03:19:25.966Z,4.75
2022-08-26T03:21:57.689Z,5.20
2022-08-26T03:24:26.029Z,6.05
2022-08-26T03:26:53.175Z,5.45
2022-08-26T03:29:39.538Z,5.70
2022-08-26T03:32:06.372Z,5.22
2022-08-26T03:34:33.133Z,5.38
2022-08-26T03:36:59.817Z,5.18
2022-08-26T03:39:26.492Z,5.07
2022-08-26T03:41:54.305Z,5.13
2022-08-26T03:44:21.837Z,5.00
2022-08-26T03:46:48.437Z,4.95
2022-08-26T03:49:15.724Z,5.32
2022-08-26T03:51:42.299Z,4.90
2022-08-26T03:54:09.578Z,5.70
2022-08-26T03:56:36.884Z,5.30
2022-08-26T03:59:04.415Z,4.85
2022-08-26T04:01:31.594Z,4.47
2022-08-26T04:04:00.515Z,5.10
2022-08-26T04:06:31.082Z,5.43
2022-08-26T04:09:02.539Z,5.20
2022-08-26T04:11:34.652Z,5.03
2022-08-26T04:14:07.651Z,5.65
2022-08-26T04:16:34.566Z,5.10
2022-08-26T04:19:01.939Z,5.65
2022-08-26T04:21:28.940Z,5.18
2022-08-26T04:23:56.289Z,5.10
2022-08-26T04:26:26.083Z,5.20
2022-08-26T04:28:54.699Z,5.43
2022-08-26T04:31:22.123Z,4.93
2022-08-26T04:33:49.973Z,6.30
2022-08-26T04:36:20.143Z,4.93
2022-08-26T04:38:47.524Z,5.55
2022-08-26T04:41:15.414Z,5.57
2022-08-26T04:43:44.891Z,6.03
2022-08-26T04:46:14.318Z,5.35
2022-08-26T04:48:41.525Z,6.10
2022-08-26T04:51:09.965Z,5.03
2022-08-26T04:53:37.474Z,5.18
2022-08-26T04:56:05.203Z,5.97
2022-08-26T04:58:32.186Z,5.47
2022-08-26T05:00:58.870Z,5.45
2022-08-26T05:03:30.565Z,4.90
2022-08-26T05:05:58.123Z,5.50
2022-08-26T05:08:25.178Z,5.90
2022-08-26T05:10:56.349Z,5.70
2022-08-26T05:13:26.338Z,6.10
2022-08-26T05:15:53.239Z,6.40
2022-08-26T05:18:23.423Z,5.78
2022-08-26T05:20:54.658Z,5.78
2022-08-26T05:23:23.416Z,7.00
2022-08-26T05:25:57.015Z,6.07
2022-08-26T05:28:26.347Z,5.43
2022-08-26T05:30:53.145Z,5.75
2022-08-26T05:33:20.287Z,6.53
2022-08-26T05:35:47.396Z,5.63
2022-08-26T05:38:16.636Z,5.90
2022-08-26T05:40:46.730Z,5.68
2022-08-26T05:43:14.489Z,7.07
2022-08-26T05:45:47.183Z,6.95
2022-08-26T05:48:16.242Z,6.18
2022-08-26T05:50:49.101Z,5.90
2022-08-26T05:53:19.262Z,5.30
2022-08-26T05:55:49.784Z,6.25
2022-08-26T05:58:20.319Z,6.18
2022-08-26T06:00:57.058Z,6.40
2022-08-26T06:05:50.315Z,5.00
2022-08-26T06:08:19.325Z,5.82
2022-08-26T06:10:52.810Z,6.00
2022-08-26T06:13:22.222Z,6.00
2022-08-26T06:15:51.223Z,6.45
2022-08-26T06:18:22.411Z,5.38
2022-08-26T06:20:57.993Z,5.53
2022-08-26T06:23:45.777Z,5.97
2022-08-26T06:26:14.375Z,6.03
2022-08-26T06:28:41.164Z,6.80
2022-08-26T06:31:12.851Z,6.07
2022-08-26T06:33:39.520Z,5.57
2022-08-26T06:36:06.870Z,6.20
2022-08-26T06:38:34.565Z,6.07
2022-08-26T06:41:03.120Z,6.68
2022-08-26T06:43:29.794Z,6.20
2022-08-26T06:46:06.011Z,6.13
2022-08-26T06:48:34.493Z,6.30
2022-08-26T06:51:11.494Z,5.95
2022-08-26T06:53:41.105Z,6.25
2022-08-26T06:56:10.654Z,5.32
2022-08-26T06:58:39.426Z,5.80
2022-08-26T07:01:29.134Z,5.63
2022-08-26T07:03:58.262Z,7.13
2022-08-26T07:06:27.523Z,6.35
2022-08-26T07:09:01.378Z,5.72
2022-08-26T07:11:30.979Z,5.83
2022-08-26T07:13:59.096Z,5.15
2022-08-26T07:16:27.879Z,6.43
2022-08-26T07:18:56.259Z,6.00
2022-08-26T07:21:24.636Z,5.70
2022-08-26T07:23:57.510Z,6.22
2022-08-26T07:26:28.620Z,4.63
2022-08-26T07:28:57.370Z,5.05
2022-08-26T07:31:25.742Z,5.32
2022-08-26T07:33:53.667Z,5.20
2022-08-26T07:36:21.991Z,5.88
2022-08-26T07:38:49.089Z,4.70
2022-08-26T07:41:18.041Z,4.38
2022-08-26T07:43:46.244Z,4.78
2022-08-26T07:46:20.731Z,4.72
2022-08-26T07:48:53.554Z,5.20
2022-08-26T07:51:21.520Z,5.10
2022-08-26T07:53:52.374Z,5.63
2022-08-26T07:56:20.719Z,4.50
2022-08-26T07:58:51.331Z,4.28
2022-08-26T08:01:18.447Z,5.05
2022-08-26T08:03:45.576Z,4.10
2022-08-26T08:06:12.552Z,5.32
2022-08-26T08:08:41.431Z,5.60
2022-08-26T08:11:08.195Z,4.43
2022-08-26T08:13:37.523Z,4.30
2022-08-26T08:16:05.315Z,4.35
2022-08-26T08:18:31.967Z,4.10
2022-08-26T08:21:21.151Z,4.18
2022-08-26T08:23:48.390Z,4.35
2022-08-26T08:26:15.491Z,4.50
2022-08-26T08:28:43.773Z,4.55
2022-08-26T08:31:38.616Z,4.90
2022-08-26T08:36:36.046Z,3.83
2022-08-26T08:39:03.181Z,4.45
2022-08-26T08:42:00.511Z,4.63
2022-08-26T08:44:29.120Z,4.13
2022-08-26T08:47:14.790Z,4.57
2022-08-26T08:49:43.806Z,4.13
2022-08-26T08:52:37.642Z,4.28
2022-08-26T08:55:11.157Z,4.40
2022-08-26T08:58:02.659Z,3.53
2022-08-26T09:00:42.618Z,3.50
2022-08-26T09:03:24.475Z,3.72
2022-08-26T09:05:53.459Z,4.28
2022-08-26T09:08:27.594Z,4.28
2022-08-26T09:10:59.411Z,3.60
2022-08-26T09:13:27.583Z,4.10
2022-08-26T09:16:08.460Z,4.20
2022-08-26T09:19:15.593Z,3.53
2022-08-26T09:21:45.869Z,3.28
2022-08-26T09:24:14.011Z,3.20
2022-08-26T09:26:41.064Z,3.45
2022-08-26T09:31:48.138Z,3.22
2022-08-26T09:34:23.843Z,3.47
2022-08-26T09:36:53.857Z,3.80
2022-08-26T09:39:26.523Z,3.13
2022-08-26T09:42:22.657Z,3.38
2022-08-26T09:45:06.261Z,4.13
2022-08-26T09:47:52.650Z,3.85
2022-08-26T09:50:54.925Z,3.63
2022-08-26T09:53:30.538Z,4.40
2022-08-26T09:56:18.319Z,4.63
2022-08-26T09:58:47.447Z,4.43
2022-08-26T10:01:23.185Z,4.38
2022-08-26T10:03:51.528Z,4.63
2022-08-26T10:06:21.172Z,5.07
2022-08-26T10:08:55.131Z,4.38
2022-08-26T10:11:30.562Z,4.65
2022-08-26T10:14:03.185Z,4.60
2022-08-26T10:22:04.387Z,3.60
2022-08-26T10:24:40.319Z,4.00
2022-08-26T10:27:52.687Z,4.97
2022-08-26T10:30:23.311Z,4.63
2022-08-26T10:32:58.276Z,4.63
2022-08-26T10:35:27.050Z,5.30
2022-08-26T10:37:58.100Z,4.57
2022-08-26T10:40:37.299Z,4.50
2022-08-26T10:43:14.144Z,4.57
2022-08-26T10:45:50.404Z,5.32
2022-08-26T10:48:27.916Z,6.25
2022-08-26T10:51:04.229Z,4.43
2022-08-26T10:53:45.306Z,4.30
2022-08-26T10:56:25.073Z,5.50
2022-08-26T10:58:57.467Z,5.38
2022-08-26T11:01:51.075Z,5.10
2022-08-26T11:04:48.122Z,5.05
2022-08-26T11:07:36.901Z,4.28
2022-08-26T11:10:20.594Z,4.90
2022-08-26T11:12:50.202Z,5.15
2022-08-26T11:15:19.775Z,4.43
2022-08-26T11:17:51.268Z,4.07
2022-08-26T11:20:29.958Z,5.63
2022-08-26T11:23:28.309Z,4.32
2022-08-26T11:26:16.444Z,4.15
2022-08-26T11:29:03.037Z,5.10
2022-08-26T11:31:30.542Z,3.63
2022-08-26T11:34:08.841Z,4.18
2022-08-26T11:36:51.741Z,3.88
2022-08-26T11:39:18.205Z,4.88
2022-08-26T11:41:47.544Z,5.10
2022-08-26T11:44:24.602Z,4.65
2022-08-26T11:46:55.695Z,4.90
2022-08-26T11:49:22.758Z,4.25
2022-08-26T11:51:49.443Z,4.20
2022-08-26T11:54:34.496Z,3.90
2022-08-26T11:57:09.289Z,3.80
2022-08-26T12:02:15.422Z,3.72
2022-08-26T12:04:46.294Z,4.10
2022-08-26T12:07:13.396Z,4.25
2022-08-26T12:09:56.393Z,4.70
2022-08-26T12:12:34.808Z,3.95
2022-08-26T12:15:20.069Z,4.90
2022-08-26T12:20:30.858Z,3.45
2022-08-26T12:23:00.112Z,3.88
2022-08-26T12:25:28.064Z,3.70
2022-08-26T12:28:05.556Z,3.97
2022-08-26T12:30:32.241Z,4.95
2022-08-26T12:33:23.021Z,4.70
2022-08-26T12:35:56.322Z,4.20
2022-08-26T12:38:25.070Z,5.43
2022-08-26T12:40:51.690Z,5.65
2022-08-26T12:43:40.362Z,5.05
2022-08-26T12:46:09.103Z,4.25
2022-08-26T12:48:38.695Z,4.72
2022-08-26T12:51:19.776Z,3.97
2022-08-26T12:53:46.388Z,4.40
2022-08-26T12:56:29.025Z,4.25
2022-08-26T12:59:04.712Z,4.03
2022-08-26T13:01:40.525Z,4.28
2022-08-26T13:04:07.097Z,4.72
2022-08-26T13:06:34.993Z,4.68
2022-08-26T13:09:07.371Z,3.83
2022-08-26T13:11:55.313Z,4.10
2022-08-26T13:14:24.572Z,4.10
2022-08-26T13:16:52.866Z,5.25
2022-08-26T13:19:22.986Z,4.75
2022-08-26T13:21:55.445Z,4.97
2022-08-26T13:24:24.706Z,4.25
2022-08-26T13:26:51.585Z,4.05
2022-08-26T13:29:19.353Z,3.40
2022-08-26T13:31:46.633Z,4.13
2022-08-26T13:34:18.226Z,4.20
2022-08-26T13:36:45.513Z,4.50
2022-08-26T13:39:12.719Z,3.67
2022-08-26T13:41:39.273Z,4.05
2022-08-26T13:44:06.526Z,4.50
2022-08-26T13:46:33.419Z,4.38
2022-08-26T13:48:59.966Z,4.30
2022-08-26T13:51:29.806Z,4.30
2022-08-26T13:53:56.598Z,3.85
2022-08-26T13:56:27.375Z,3.85
2022-08-26T13:58:53.854Z,4.05
2022-08-26T14:01:20.544Z,4.65
2022-08-26T14:03:47.127Z,4.57
2022-08-26T14:06:13.922Z,4.35
2022-08-26T14:08:43.762Z,4.93
2022-08-26T14:11:10.976Z,3.92
2022-08-26T14:13:37.646Z,3.95
2022-08-26T14:16:07.664Z,3.50
2022-08-26T14:18:41.882Z,4.93
2022-08-26T14:21:12.597Z,4.10
2022-08-26T14:23:39.126Z,3.78
2022-08-26T14:26:08.379Z,3.95
2022-08-26T14:28:35.636Z,3.88
2022-08-26T14:31:03.452Z,4.63
2022-08-26T14:33:33.962Z,4.55
2022-08-26T14:36:19.438Z,3.83
2022-08-26T14:38:46.533Z,4.13
2022-08-26T14:41:17.103Z,4.57
2022-08-26T14:43:59.893Z,3.70
2022-08-26T14:46:30.291Z,3.63
2022-08-26T14:49:01.994Z,4.63
2022-08-26T14:51:28.901Z,5.90
2022-08-26T14:54:13.989Z,6.28
2022-08-26T14:56:48.825Z,4.10
2022-08-26T14:59:18.066Z,4.75
2022-08-26T15:01:45.713Z,3.97
2022-08-26T15:04:12.841Z,4.70
2022-08-26T15:06:39.995Z,4.45
2022-08-26T15:09:07.414Z,4.72
2022-08-26T15:11:34.256Z,5.00
2022-08-26T15:14:00.726Z,4.20
2022-08-26T15:16:29.132Z,4.65
2022-08-26T15:18:56.441Z,4.20
2022-08-26T15:21:23.926Z,4.22
2022-08-26T15:23:52.706Z,4.00
2022-08-26T15:26:20.436Z,4.50
2022-08-26T15:28:47.154Z,4.25
2022-08-26T15:31:13.981Z,4.70
2022-08-26T15:33:40.579Z,3.65
2022-08-26T15:36:08.248Z,3.97
2022-08-26T15:38:38.915Z,3.85
2022-08-26T15:41:08.686Z,3.88
2022-08-26T15:43:36.607Z,4.22
2022-08-26T15:46:03.914Z,4.35
2022-08-26T15:48:30.486Z,4.05
2022-08-26T15:51:02.514Z,4.28
2022-08-26T15:53:31.508Z,3.95
2022-08-26T15:55:58.998Z,4.15
2022-08-26T15:58:27.654Z,3.72
2022-08-26T16:00:56.010Z,3.75
2022-08-26T16:03:22.804Z,3.58
2022-08-26T16:05:49.547Z,3.80
2022-08-26T16:08:16.337Z,4.35
2022-08-26T16:10:50.247Z,4.13
2022-08-26T16:13:19.206Z,3.33
2022-08-26T16:15:47.529Z,3.90
2022-08-26T16:18:15.533Z,4.40
2022-08-26T16:20:55.395Z,3.88
2022-08-26T16:23:38.463Z,3.25
2022-08-26T16:26:14.339Z,4.22
2022-08-26T16:28:41.056Z,3.63
2022-08-26T16:31:10.549Z,4.60
2022-08-26T16:33:39.999Z,4.38
2022-08-26T16:36:07.952Z,4.03
2022-08-26T16:38:35.488Z,4.15
2022-08-26T16:41:02.442Z,4.70
2022-08-26T16:43:29.121Z,4.97
2022-08-26T16:45:56.216Z,5.00
2022-08-26T16:48:23.601Z,5.03
2022-08-26T16:50:50.874Z,5.05
2022-08-26T16:53:17.482Z,4.65
2022-08-26T16:55:48.322Z,5.15
2022-08-26T16:58:15.297Z,4.95
2022-08-26T17:00:42.345Z,4.70
2022-08-26T17:03:09.039Z,3.83
2022-08-26T17:05:36.351Z,4.07
2022-08-26T17:08:03.890Z,3.85
2022-08-26T17:10:30.821Z,3.08
2022-08-26T17:12:57.810Z,3.10
2022-08-26T17:15:25.404Z,3.97
2022-08-26T17:17:53.375Z,3.13
2022-08-26T17:20:22.420Z,2.42
2022-08-26T17:22:51.190Z,2.60
2022-08-26T17:25:22.575Z,2.95
2022-08-26T17:27:49.107Z,2.63
2022-08-26T17:30:17.453Z,2.45
2022-08-26T17:32:44.954Z,2.53
2022-08-26T17:35:13.029Z,2.15
2022-08-26T17:37:39.924Z,2.80
2022-08-26T17:40:10.211Z,1.67
2022-08-26T17:42:38.761Z,2.47
2022-08-26T17:45:06.154Z,3.15
2022-08-26T17:47:33.242Z,3.95
2022-08-26T17:50:01.265Z,3.72
2022-08-26T17:52:28.587Z,2.60
2022-08-26T17:54:58.449Z,2.90
2022-08-26T17:57:26.228Z,2.72
2022-08-26T17:59:53.748Z,2.85
2022-08-26T18:02:21.084Z,2.47
2022-08-26T18:04:47.849Z,2.78
2022-08-26T18:07:14.566Z,4.28
2022-08-26T18:09:41.153Z,2.80
2022-08-26T18:12:08.291Z,2.75
2022-08-26T18:14:35.468Z,3.22
2022-08-26T18:17:02.461Z,3.25
2022-08-26T18:19:29.845Z,3.83
2022-08-26T18:21:56.864Z,3.58
2022-08-26T18:24:23.683Z,3.58
2022-08-26T18:26:51.094Z,3.40
2022-08-26T18:29:19.926Z,3.63
2022-08-26T18:31:46.660Z,3.70
2022-08-26T18:34:15.457Z,3.50
2022-08-26T18:36:43.780Z,3.22
2022-08-26T18:39:12.587Z,3.70
2022-08-26T18:41:44.888Z,3.30
2022-08-26T18:44:13.973Z,3.88
2022-08-26T18:46:40.949Z,4.18
2022-08-26T18:49:08.346Z,4.72
2022-08-26T18:51:35.596Z,4.07
2022-08-26T18:54:04.587Z,4.40
2022-08-26T18:56:32.109Z,4.20
2022-08-26T18:59:01.580Z,3.60
2022-08-26T19:01:30.177Z,4.28
2022-08-26T19:03:58.931Z,3.80
2022-08-26T19:06:28.279Z,5.70
2022-08-26T19:08:55.671Z,3.90
2022-08-26T19:11:31.985Z,4.28
2022-08-26T19:13:59.947Z,3.60
2022-08-26T19:16:27.519Z,3.45
2022-08-26T19:18:55.346Z,3.88
2022-08-26T19:21:23.519Z,4.47
2022-08-26T19:23:51.174Z,5.22
2022-08-26T19:26:18.482Z,4.93
2022-08-26T19:28:45.063Z,5.13
2022-08-26T19:31:12.326Z,5.10
2022-08-26T19:33:41.920Z,5.28
2022-08-26T19:36:22.143Z,6.68
2022-08-26T19:38:50.025Z,5.95
2022-08-26T19:41:36.706Z,6.72
2022-08-26T19:44:07.314Z,6.90
2022-08-26T19:46:33.998Z,5.90
2022-08-26T19:49:00.488Z,6.13
2022-08-26T19:51:29.749Z,5.03
2022-08-26T19:53:58.905Z,5.22
2022-08-26T19:56:26.741Z,5.05
2022-08-26T19:58:54.451Z,5.40
2022-08-26T20:01:22.004Z,6.10
2022-08-26T20:03:49.492Z,6.15
2022-08-26T20:06:20.102Z,5.93
2022-08-26T20:08:46.736Z,5.50
2022-08-26T20:11:17.176Z,5.68
2022-08-26T20:13:46.553Z,6.30
2022-08-26T20:16:13.865Z,5.28
2022-08-26T20:18:59.728Z,6.80
2022-08-26T20:21:27.733Z,6.97
2022-08-26T20:23:58.463Z,6.28
2022-08-26T20:26:27.384Z,4.93
2022-08-26T20:28:55.070Z,4.53
2022-08-26T20:31:21.775Z,4.85
2022-08-26T20:33:49.565Z,3.92
2022-08-26T20:36:16.478Z,3.80
2022-08-26T20:38:43.101Z,3.35
2022-08-26T20:41:10.432Z,3.03
2022-08-26T20:43:36.993Z,3.08
2022-08-26T20:46:03.796Z,3.35
2022-08-26T20:48:34.812Z,3.17
2022-08-26T20:51:02.048Z,3.05
2022-08-26T20:53:29.702Z,3.42
2022-08-26T20:56:08.678Z,3.38
2022-08-26T20:58:36.407Z,3.22
2022-08-26T21:01:07.578Z,3.20
2022-08-26T21:03:35.101Z,3.05
2022-08-26T21:06:03.164Z,3.05
2022-08-26T21:08:29.740Z,3.13
2022-08-26T21:11:00.079Z,3.53
2022-08-26T21:13:26.913Z,3.22
2022-08-26T21:15:58.043Z,3.70
2022-08-26T21:18:25.123Z,3.47
2022-08-26T21:20:52.759Z,3.47
2022-08-26T21:23:19.384Z,3.63
2022-08-26T21:25:46.618Z,4.18
2022-08-26T21:28:13.348Z,3.72
2022-08-26T21:30:40.702Z,3.63
2022-08-26T21:33:07.621Z,2.92
2022-08-26T21:35:34.173Z,3.15
2022-08-26T21:38:00.818Z,3.13
2022-08-26T21:40:27.865Z,2.90
2022-08-26T21:42:54.476Z,2.47
2022-08-26T21:45:20.995Z,3.55
2022-08-26T21:47:47.518Z,3.10
2022-08-26T21:50:13.999Z,2.83
2022-08-26T21:52:40.552Z,3.03
2022-08-26T21:55:09.093Z,3.10
2022-08-26T21:57:38.034Z,3.88
2022-08-26T22:00:08.936Z,2.85
2022-08-26T22:02:37.068Z,3.65
2022-08-26T22:05:04.112Z,3.40
2022-08-26T22:07:30.672Z,3.22
2022-08-26T22:09:57.255Z,3.15
2022-08-26T22:12:23.736Z,4.00
2022-08-26T22:14:50.315Z,3.90
2022-08-26T22:17:17.092Z,4.38
2022-08-26T22:19:46.181Z,3.88
2022-08-26T22:22:14.409Z,4.15
2022-08-26T22:24:43.239Z,4.75
2022-08-26T22:32:23.491Z,4.43
2022-08-26T22:34:50.007Z,4.07
2022-08-26T22:37:16.566Z,4.22
2022-08-26T22:39:43.113Z,4.20
2022-08-26T22:42:09.682Z,4.78
2022-08-26T22:44:37.609Z,4.07
2022-08-26T22:47:05.186Z,4.05
2022-08-26T22:49:31.762Z,3.63
2022-08-26T22:51:58.256Z,3.58
2022-08-26T22:54:24.877Z,4.05
2022-08-26T22:56:51.393Z,4.45
2022-08-26T22:59:18.012Z,3.05
2022-08-26T23:01:46.341Z,3.38
2022-08-26T23:04:13.033Z,3.78
2022-08-26T23:06:43.106Z,3.38
2022-08-26T23:09:10.961Z,2.92
2022-08-26T23:11:39.813Z,3.25
2022-08-26T23:14:08.922Z,2.97
2022-08-26T23:16:37.875Z,3.13
2022-08-26T23:19:07.544Z,3.20
2022-08-26T23:21:34.371Z,2.88
2022-08-26T23:24:02.303Z,2.63
2022-08-26T23:26:28.830Z,2.75
2022-08-26T23:28:55.542Z,2.85
2022-08-26T23:31:22.088Z,2.60
2022-08-26T23:34:07.230Z,3.05
2022-08-26T23:36:35.043Z,2.60
2022-08-26T23:39:03.082Z,2.88
2022-08-26T23:41:29.591Z,2.92
2022-08-26T23:43:57.983Z,3.03
2022-08-26T23:46:27.079Z,2.72
2022-08-26T23:48:53.605Z,2.63
2022-08-26T23:51:38.693Z,3.15
2022-08-26T23:54:05.223Z,2.55
2022-08-26T23:56:31.830Z,2.53
2022-08-26T23:58:58.726Z,3.30
